Time;durP1;ratioP1;P1;durP2;ratioP2;P2;SDS_P1;SDS_P2;PMS_P1;PMS_P2;Temp;Humidity;BMP_temperature;BMP_pressure;BME280_temperature;BME280_humidity;BME280_pressure;Samples;Min_cycle;Max_cycle;Signal;HPM_P1;HPM_P2
2023/09/21 00:01:11;;;;;;;10.98;6.30;;;;;;;-144.30;64.71;84696.75;5070544;28;20203;-56
2023/09/21 00:03:39;;;;;;;6.85;6.13;;;;;;;-144.30;64.72;84680.84;5070264;28;20694;-56
2023/09/21 00:06:07;;;;;;;7.00;6.40;;;;;;;-144.30;64.79;84672.91;5069325;28;20259;-57
2023/09/21 00:08:34;;;;;;;7.55;6.20;;;;;;;-144.30;64.77;84700.72;5070004;28;20204;-57
2023/09/21 00:11:03;;;;;;;7.25;6.55;;;;;;;-144.30;64.50;84688.81;5070359;28;20196;-61
2023/09/21 00:13:32;;;;;;;6.93;6.32;;;;;;;-144.30;64.66;84728.56;5070055;28;20203;-62
2023/09/21 00:16:00;;;;;;;8.95;6.25;;;;;;;-144.30;62.96;84702.72;5070230;28;20203;-57
2023/09/21 00:18:29;;;;;;;9.43;6.00;;;;;;;-144.30;62.37;84704.69;5069948;28;20289;-57
2023/09/21 00:20:57;;;;;;;6.15;5.60;;;;;;;-144.30;62.00;84668.94;5070240;28;20200;-57
2023/09/21 00:23:25;;;;;;;9.15;6.20;;;;;;;-144.30;62.54;84680.84;5070367;28;20617;-61
2023/09/21 00:25:54;;;;;;;10.45;6.43;;;;;;;-144.30;62.49;84696.75;5069692;28;20234;-61
2023/09/21 00:28:22;;;;;;;10.13;5.90;;;;;;;-144.30;62.36;84692.78;5070115;28;20246;-62
2023/09/21 00:30:57;;;;;;;6.95;6.22;;;;;;;-144.30;62.59;84724.56;5069806;28;20748;-62
2023/09/21 00:33:24;;;;;;;6.75;6.15;;;;;;;-144.30;62.48;84726.56;5070373;28;20691;-62
2023/09/21 00:35:51;;;;;;;7.00;6.10;;;;;;;-144.30;62.25;84698.75;5069663;28;20188;-62
2023/09/21 00:38:19;;;;;;;7.57;5.85;;;;;;;-144.30;62.66;84702.72;5069826;28;20318;-61
2023/09/21 00:40:47;;;;;;;9.65;6.05;;;;;;;-144.30;62.97;84740.47;5069559;28;20287;-61
2023/09/21 00:43:21;;;;;;;8.88;5.90;;;;;;;-144.30;62.92;84702.72;5069692;28;20672;-57
2023/09/21 00:45:53;;;;;;;9.93;5.85;;;;;;;-144.30;63.03;84718.63;5069416;28;20232;-57
2023/09/21 00:48:23;;;;;;;10.15;5.90;;;;;;;-144.30;63.00;84726.56;5069660;28;20204;-56
2023/09/21 00:50:51;;;;;;;7.65;6.38;;;;;;;-144.30;63.60;84722.59;5069534;28;20737;-57
2023/09/21 00:53:19;;;;;;;7.38;6.68;;;;;;;-144.30;63.68;84784.19;5069681;28;20613;-57
2023/09/21 00:55:49;;;;;;;8.15;5.70;;;;;;;-144.30;63.90;84732.53;5069580;28;20191;-56
2023/09/21 00:58:18;;;;;;;7.88;6.40;;;;;;;-144.30;63.79;84764.31;5069514;28;20196;-57
2023/09/21 01:00:47;;;;;;;6.72;6.03;;;;;;;-144.30;64.17;84764.31;5069453;28;20203;-56
2023/09/21 01:03:16;;;;;;;7.07;5.70;;;;;;;-144.30;64.49;84748.44;5069605;28;20635;-56
2023/09/21 01:05:45;;;;;;;18.38;6.25;;;;;;;-144.30;64.40;84768.31;5069151;28;20314;-56
2023/09/21 01:08:16;;;;;;;12.52;6.28;;;;;;;-144.30;64.85;84792.16;5069424;28;20207;-56
2023/09/21 01:10:48;;;;;;;6.90;6.03;;;;;;;-144.30;64.96;84784.19;5069155;28;20286;-56
2023/09/21 01:13:16;;;;;;;9.60;6.57;;;;;;;-144.30;65.40;84740.47;5069324;28;20192;-56
2023/09/21 01:15:45;;;;;;;9.32;6.07;;;;;;;-144.30;65.75;84855.75;5069179;28;20232;-57
2023/09/21 01:18:12;;;;;;;6.43;5.82;;;;;;;-144.30;65.86;84672.91;5069109;28;20232;-56
2023/09/21 01:20:42;;;;;;;7.68;6.20;;;;;;;-144.30;66.10;84827.94;5069195;28;20668;-61
2023/09/21 01:23:15;;;;;;;9.40;6.13;;;;;;;-144.30;66.17;84825.94;5069074;28;20664;-62
2023/09/21 01:25:46;;;;;;;12.10;5.90;;;;;;;-144.30;66.54;84857.75;5068989;28;20220;-61
2023/09/21 01:28:16;;;;;;;7.80;6.00;;;;;;;-144.30;66.59;84879.59;5069592;28;20203;-61
2023/09/21 01:30:44;;;;;;;12.52;5.88;;;;;;;-144.30;66.95;84762.34;5069513;28;20191;-61
2023/09/21 01:33:12;;;;;;;12.38;5.85;;;;;;;-144.30;67.02;84788.19;5069358;28;20742;-62
2023/09/21 01:35:40;;;;;;;6.15;5.55;;;;;;;-144.30;66.67;84796.13;5068874;28;20199;-61
2023/09/21 01:38:07;;;;;;;6.97;5.05;;;;;;;-144.30;67.12;84831.91;5069534;28;20192;-61
2023/09/21 01:40:35;;;;;;;5.82;5.32;;;;;;;-144.30;67.59;84816.00;5068972;28;20206;-56
2023/09/21 01:43:08;;;;;;;7.82;5.63;;;;;;;-144.30;67.47;84806.06;5069252;28;20199;-61
2023/09/21 01:45:37;;;;;;;6.05;5.47;;;;;;;-144.30;68.25;84835.88;5069011;28;20295;-62
2023/09/21 01:48:07;;;;;;;5.90;5.38;;;;;;;-144.30;67.96;84839.84;5068990;28;20204;-60
2023/09/21 01:50:34;;;;;;;7.38;6.07;;;;;;;-144.30;68.33;84835.88;5068932;28;21387;-56
2023/09/21 01:53:08;;;;;;;6.13;5.55;;;;;;;-144.30;68.67;84853.78;5069240;28;20277;-56
2023/09/21 01:55:35;;;;;;;8.30;6.40;;;;;;;-144.30;69.51;84875.63;5068674;28;20203;-57
2023/09/21 01:58:02;;;;;;;6.65;6.15;;;;;;;-144.30;69.01;84847.81;5069228;28;20196;-61
2023/09/21 02:00:30;;;;;;;6.30;5.80;;;;;;;-144.30;69.78;84867.69;5069131;28;20223;-61
2023/09/21 02:02:57;;;;;;;8.38;5.85;;;;;;;-144.30;69.21;84859.72;5068987;28;20192;-62
2023/09/21 02:05:25;;;;;;;10.32;5.72;;;;;;;-144.30;69.48;84859.72;5068836;28;20296;-61
2023/09/21 02:07:55;;;;;;;6.03;5.55;;;;;;;-144.30;69.59;84891.53;5068749;28;20200;-61
2023/09/21 02:10:22;;;;;;;7.75;5.63;;;;;;;-144.30;69.68;84819.97;5068756;28;20254;-62
2023/09/21 02:12:55;;;;;;;9.25;5.68;;;;;;;-144.30;70.19;84921.34;5068689;28;20199;-61
2023/09/21 02:15:22;;;;;;;7.43;5.47;;;;;;;-144.30;70.38;84919.34;5068783;28;20192;-61
2023/09/21 02:17:51;;;;;;;6.72;6.07;;;;;;;-144.30;70.88;84907.44;5068865;28;20242;-61
2023/09/21 02:20:20;;;;;;;6.25;5.80;;;;;;;-144.30;70.91;84901.47;5068762;28;20203;-62
2023/09/21 02:22:48;;;;;;;8.05;6.32;;;;;;;-144.30;70.82;84927.31;5068699;28;20196;-61
2023/09/21 02:25:16;;;;;;;6.13;5.55;;;;;;;-144.30;71.12;84891.53;5068631;28;20200;-61
2023/09/21 02:27:45;;;;;;;7.25;5.47;;;;;;;-144.30;71.60;84881.59;5068453;28;20216;-57
2023/09/21 02:30:14;;;;;;;6.68;5.95;;;;;;;-144.30;71.52;84899.47;5072271;28;20199;-57
2023/09/21 02:32:42;;;;;;;6.30;5.78;;;;;;;-144.30;71.38;84897.50;5072003;28;20196;-56
2023/09/21 02:35:13;;;;;;;7.60;5.88;;;;;;;-144.30;71.68;84931.28;5072038;28;20195;-61
2023/09/21 02:37:44;;;;;;;7.05;6.22;;;;;;;-144.30;71.78;84899.47;5072049;28;20200;-60
2023/09/21 02:40:17;;;;;;;5.72;5.25;;;;;;;-144.30;71.91;84959.13;5072221;28;20200;-56
2023/09/21 02:42:45;;;;;;;5.82;5.35;;;;;;;-144.30;72.14;84935.25;5072120;28;20687;-57
2023/09/21 02:45:12;;;;;;;7.38;4.82;;;;;;;-144.30;72.07;84911.41;5072106;28;20204;-61
2023/09/21 02:47:41;;;;;;;6.78;5.68;;;;;;;-144.30;72.10;84929.28;5071850;28;20230;-57
2023/09/21 02:50:15;;;;;;;6.30;5.63;;;;;;;-144.30;71.98;84935.25;5072072;28;20195;-56
2023/09/21 02:52:48;;;;;;;7.50;5.32;;;;;;;-144.30;72.01;84923.34;5071657;28;20199;-57
2023/09/21 02:55:18;;;;;;;6.30;5.70;;;;;;;-144.30;72.05;84939.25;5072103;28;20200;-57
2023/09/21 02:57:47;;;;;;;10.50;6.22;;;;;;;-144.30;72.38;84927.31;5071687;28;20196;-60
2023/09/21 03:00:20;;;;;;;8.00;6.32;;;;;;;-144.30;72.54;84943.22;5071768;28;20200;-58
2023/09/21 03:02:47;;;;;;;7.88;6.30;;;;;;;-144.30;72.19;84935.25;5071487;28;20192;-57
2023/09/21 03:05:16;;;;;;;11.13;6.05;;;;;;;-144.30;72.76;84959.13;5071699;28;20492;-56
2023/09/21 03:07:44;;;;;;;9.98;6.35;;;;;;;-144.30;72.47;84939.25;5071435;28;20224;-61
2023/09/21 03:10:13;;;;;;;9.63;6.47;;;;;;;-144.30;72.61;84917.38;5071894;28;20200;-61
2023/09/21 03:12:41;;;;;;;8.50;5.90;;;;;;;-144.30;72.35;84935.25;5071458;28;20286;-56
2023/09/21 03:15:13;;;;;;;10.27;6.28;;;;;;;-144.30;72.84;84907.44;5071517;28;20200;-57
2023/09/21 03:17:41;;;;;;;6.70;5.97;;;;;;;-144.30;73.06;84955.13;5071392;28;20797;-57
2023/09/21 03:20:12;;;;;;;6.55;5.95;;;;;;;-144.30;73.46;84943.22;5071477;28;20291;-56
2023/09/21 03:22:41;;;;;;;7.63;6.05;;;;;;;-144.30;73.47;84979.00;5071270;28;20200;-57
2023/09/21 03:25:15;;;;;;;7.15;6.43;;;;;;;-144.30;73.26;84973.03;5071433;28;20203;-61
2023/09/21 03:27:45;;;;;;;6.50;5.95;;;;;;;-144.30;73.08;84935.25;5071148;28;20228;-56
2023/09/21 03:30:13;;;;;;;6.78;6.05;;;;;;;-144.30;72.82;84967.06;5071258;28;20207;-61
2023/09/21 03:32:41;;;;;;;7.93;5.57;;;;;;;-144.30;72.78;84971.03;5071294;28;20255;-61
2023/09/21 03:35:11;;;;;;;7.53;5.97;;;;;;;-144.30;72.91;84941.22;5070006;28;20200;-61
2023/09/21 03:37:41;;;;;;;6.65;5.75;;;;;;;-144.30;72.61;84996.88;5071171;28;20196;-60
2023/09/21 03:40:10;;;;;;;6.25;5.63;;;;;;;-144.30;72.91;84937.25;5071159;28;20260;-61
2023/09/21 03:42:37;;;;;;;10.93;6.57;;;;;;;-144.30;72.71;84979.00;5071146;28;20192;-62
2023/09/21 03:45:07;;;;;;;7.35;6.15;;;;;;;-144.30;72.84;84911.41;5070835;28;20283;-62
2023/09/21 03:47:34;;;;;;;6.45;5.82;;;;;;;-144.30;72.85;84927.31;5070769;28;20684;-64
2023/09/21 03:50:03;;;;;;;11.27;6.68;;;;;;;-144.30;72.93;84871.66;5070823;28;20203;-62
2023/09/21 03:52:30;;;;;;;9.23;6.25;;;;;;;-144.30;72.74;84943.22;5067544;28;20652;-61
2023/09/21 03:54:57;;;;;;;8.90;6.95;;;;;;;-144.30;72.64;84949.19;5050868;28;20196;-63
2023/09/21 03:57:23;;;;;;;9.75;6.30;;;;;;;-144.30;72.51;84923.34;5050545;28;20249;-63
2023/09/21 03:59:50;;;;;;;13.32;8.88;;;;;;;-144.30;73.62;84955.13;5050478;28;20196;-61
2023/09/21 04:02:19;;;;;;;8.00;7.00;;;;;;;-144.30;72.97;84945.19;5050508;28;20287;-61
2023/09/21 04:04:49;;;;;;;21.95;9.02;;;;;;;-144.30;72.71;84937.25;5050623;28;20266;-61
2023/09/21 04:07:17;;;;;;;20.05;8.45;;;;;;;-144.30;72.66;84897.50;5058803;28;20228;-57
2023/09/21 04:09:45;;;;;;;12.35;7.75;;;;;;;-144.30;72.25;84911.41;5069178;28;20203;-58
2023/09/21 04:12:13;;;;;;;9.50;7.25;;;;;;;-144.30;72.08;84939.25;5070637;28;20668;-56
2023/09/21 04:14:45;;;;;;;14.40;6.68;;;;;;;-144.30;72.23;84909.41;5054452;28;20199;-55
2023/09/21 04:17:12;;;;;;;7.25;6.60;;;;;;;-144.30;72.36;84917.38;5069254;28;20200;-56
2023/09/21 04:19:40;;;;;;;9.65;7.00;;;;;;;-144.30;72.31;84905.44;5068037;28;20668;-56
2023/09/21 04:22:07;;;;;;;12.50;6.97;;;;;;;-144.30;71.64;84853.78;5062360;28;20203;-56
2023/09/21 04:24:34;;;;;;;11.77;6.88;;;;;;;-144.30;71.35;84895.50;5068272;28;20689;-56
2023/09/21 04:27:03;;;;;;;9.57;6.93;;;;;;;-144.30;70.53;84867.69;5068394;28;20211;-56
2023/09/21 04:29:30;;;;;;;10.05;5.97;;;;;;;-144.30;70.38;84825.94;5065638;28;20196;-56
2023/09/21 04:31:58;;;;;;;14.13;6.82;;;;;;;-144.30;69.61;84808.06;5068402;28;20208;-57
2023/09/21 04:34:25;;;;;;;12.82;6.30;;;;;;;-144.30;70.00;84802.09;5069232;28;20287;-61
2023/09/21 04:36:53;;;;;;;14.27;7.05;;;;;;;-144.30;69.39;84812.03;5069323;28;20202;-61
2023/09/21 04:39:20;;;;;;;10.18;6.85;;;;;;;-144.30;69.39;84816.00;5069892;28;20699;-61
2023/09/21 04:41:47;;;;;;;11.63;7.13;;;;;;;-144.30;69.13;85008.81;5069669;28;20196;-61
2023/09/21 04:44:14;;;;;;;7.32;6.72;;;;;;;-144.30;68.44;84754.38;5069418;28;20208;-61
2023/09/21 04:46:42;;;;;;;17.45;6.35;;;;;;;-144.30;68.02;84798.13;5070015;28;20605;-61
2023/09/21 04:49:10;;;;;;;13.93;7.20;;;;;;;-144.30;67.77;84780.22;5069829;28;20200;-61
2023/09/21 04:51:38;;;;;;;16.30;6.85;;;;;;;-144.30;67.65;84780.22;5069668;28;20269;-62
2023/09/21 04:54:09;;;;;;;11.10;6.63;;;;;;;-144.30;67.46;84762.34;5069789;28;20196;-62
2023/09/21 04:56:36;;;;;;;13.70;7.75;;;;;;;-144.30;67.55;84774.25;5069494;28;20196;-62
2023/09/21 04:59:04;;;;;;;12.65;7.38;;;;;;;-144.30;67.63;84778.25;5069860;28;20203;-57
2023/09/21 05:01:31;;;;;;;15.40;7.53;;;;;;;-144.30;67.61;84768.31;5069606;28;20597;-57
2023/09/21 05:03:58;;;;;;;10.00;7.57;;;;;;;-144.30;67.79;84766.31;5069223;28;20200;-58
2023/09/21 05:06:25;;;;;;;8.63;7.13;;;;;;;-144.30;68.36;84774.25;5069282;28;20206;-56
2023/09/21 05:08:53;;;;;;;10.13;7.28;;;;;;;-144.30;68.78;84790.16;5069593;28;20204;-56
2023/09/21 05:11:21;;;;;;;9.82;7.75;;;;;;;-144.30;69.07;84812.03;5069600;28;20633;-56
2023/09/21 05:13:50;;;;;;;9.85;7.43;;;;;;;-144.30;69.45;84770.28;5069240;28;20207;-56
2023/09/21 05:16:18;;;;;;;9.75;7.65;;;;;;;-144.30;69.60;84764.31;5069060;28;20296;-61
2023/09/21 05:18:45;;;;;;;11.30;7.50;;;;;;;-144.30;70.14;84784.19;5069172;28;20223;-61
2023/09/21 05:21:12;;;;;;;10.60;8.45;;;;;;;-144.30;70.48;84819.97;5069570;28;20199;-62
2023/09/21 05:23:45;;;;;;;8.98;7.88;;;;;;;-144.30;71.60;84867.69;5069338;28;20227;-61
2023/09/21 05:26:12;;;;;;;8.23;7.43;;;;;;;-144.30;71.58;84855.75;5069407;28;20219;-61
2023/09/21 05:28:40;;;;;;;10.75;7.95;;;;;;;-144.30;71.57;84865.69;5069053;28;20220;-61
2023/09/21 05:31:09;;;;;;;8.80;7.93;;;;;;;-144.30;70.99;84792.16;5069264;28;20207;-55
2023/09/21 05:33:36;;;;;;;8.60;7.35;;;;;;;-144.30;68.80;84748.44;5068948;28;20195;-57
2023/09/21 05:36:06;;;;;;;11.32;7.32;;;;;;;-144.30;66.73;84700.72;5069083;28;20196;-57
2023/09/21 05:38:33;;;;;;;12.57;7.45;;;;;;;-144.30;66.65;84698.75;5068751;28;20192;-56
2023/09/21 05:41:04;;;;;;;10.82;7.40;;;;;;;-144.30;66.98;85032.66;5069191;28;20283;-56
2023/09/21 05:43:31;;;;;;;10.00;7.07;;;;;;;-144.30;67.72;85388.47;5068961;28;20676;-55
2023/09/21 05:45:59;;;;;;;12.32;6.90;;;;;;;-144.30;68.26;84786.19;5069095;28;20298;-57
2023/09/21 05:48:26;;;;;;;12.68;7.88;;;;;;;-144.30;68.69;84748.44;5068955;28;20220;-57
2023/09/21 05:50:53;;;;;;;13.85;7.63;;;;;;;-144.30;69.13;84776.25;5068578;28;20196;-63
2023/09/21 05:53:22;;;;;;;9.18;7.45;;;;;;;-144.30;69.85;84845.81;5069421;28;20203;-63
2023/09/21 05:55:49;;;;;;;8.40;7.53;;;;;;;-144.30;70.19;84833.88;5069221;28;20196;-62
2023/09/21 05:58:16;;;;;;;9.73;7.55;;;;;;;-144.30;70.42;84804.06;5069229;28;20188;-57
2023/09/21 06:00:43;;;;;;;18.55;8.05;;;;;;;-144.30;70.55;84818.00;5068802;28;20665;-56
2023/09/21 06:03:11;;;;;;;10.20;8.68;;;;;;;-144.30;70.58;84716.63;5069738;28;20564;-55
2023/09/21 06:05:38;;;;;;;18.42;8.93;;;;;;;-144.30;70.75;84800.09;5072375;28;20639;-55
2023/09/21 06:08:05;;;;;;;15.40;8.70;;;;;;;-144.30;70.96;84819.97;5072613;28;20246;-55
2023/09/21 06:10:32;;;;;;;20.45;8.68;;;;;;;-144.30;70.90;84825.94;5072487;28;20196;-55
2023/09/21 06:12:59;;;;;;;20.23;9.77;;;;;;;-144.30;71.18;84831.91;5067603;28;20615;-55
2023/09/21 06:15:26;;;;;;;18.48;8.68;;;;;;;-144.30;71.09;84859.72;5072203;28;20231;-57
2023/09/21 06:17:53;;;;;;;19.42;9.10;;;;;;;-144.30;71.34;84853.78;5071069;28;20729;-56
2023/09/21 06:20:21;;;;;;;16.38;9.07;;;;;;;-144.30;71.86;84770.28;5071515;28;20196;-55
2023/09/21 06:22:48;;;;;;;15.52;9.30;;;;;;;-144.30;71.50;84804.06;5071476;28;20741;-55
2023/09/21 06:25:16;;;;;;;13.88;9.20;;;;;;;-144.30;71.61;84855.75;5071918;28;20576;-55
2023/09/21 06:27:43;;;;;;;17.67;9.77;;;;;;;-144.30;71.55;84835.88;5072085;28;20223;-56
2023/09/21 06:30:12;;;;;;;15.43;9.30;;;;;;;-144.30;71.50;84839.84;5072498;28;20302;-55
2023/09/21 06:32:39;;;;;;;25.45;11.13;;;;;;;-144.30;71.74;84808.06;5071965;28;20219;-55
2023/09/21 06:35:08;;;;;;;12.13;9.52;;;;;;;-144.30;71.46;84839.84;5072261;28;20640;-57
2023/09/21 06:37:37;;;;;;;14.45;8.43;;;;;;;-144.30;71.21;85243.38;5072326;28;20644;-61
2023/09/21 06:40:06;;;;;;;13.70;8.90;;;;;;;-144.30;71.06;84768.31;5072308;28;20454;-54
2023/09/21 06:42:33;;;;;;;11.15;8.55;;;;;;;-144.30;71.03;84766.31;5071918;28;20210;-55
2023/09/21 06:45:00;;;;;;;19.92;8.85;;;;;;;-144.30;70.41;84768.31;5072377;28;20227;-61
2023/09/21 06:47:28;;;;;;;14.45;8.70;;;;;;;-144.30;69.48;84760.34;5072128;28;20224;-61
2023/09/21 06:49:55;;;;;;;20.55;9.52;;;;;;;-144.30;68.84;84728.56;5071937;28;20292;-56
2023/09/21 06:52:22;;;;;;;25.45;9.52;;;;;;;-144.30;67.92;84662.97;5071779;28;20200;-56
2023/09/21 06:54:52;;;;;;;14.38;9.20;;;;;;;-144.30;67.38;84680.84;5071765;28;20577;-56
2023/09/21 06:57:23;;;;;;;13.88;8.70;;;;;;;-144.30;67.95;84694.75;5071649;28;20247;-56
2023/09/21 06:59:51;;;;;;;10.60;8.60;;;;;;;-144.30;68.16;84670.91;5072049;28;20573;-57
2023/09/21 07:02:18;;;;;;;10.98;9.23;;;;;;;-144.30;67.71;84700.72;5071977;28;20207;-56
2023/09/21 07:04:45;;;;;;;13.60;8.32;;;;;;;-144.30;67.65;84643.09;5070942;28;21205;-56
2023/09/21 07:07:15;;;;;;;18.67;8.80;;;;;;;-144.30;66.54;84585.44;5071228;28;20225;-56
2023/09/21 07:09:43;;;;;;;14.57;8.30;;;;;;;-144.30;65.35;84605.31;5071610;28;20612;-56
2023/09/21 07:12:12;;;;;;;13.02;8.85;;;;;;;-144.30;65.21;84573.53;5071432;28;20205;-56
2023/09/21 07:14:39;;;;;;;10.35;8.90;;;;;;;-144.30;65.15;84591.41;5070715;28;20256;-56
2023/09/21 07:17:06;;;;;;;10.88;9.00;;;;;;;-144.30;65.96;84593.41;5071238;28;20192;-56
2023/09/21 07:19:34;;;;;;;15.75;9.45;;;;;;;-144.30;65.78;84579.50;5071154;28;20224;-57
2023/09/21 07:22:01;;;;;;;8.80;8.00;;;;;;;-144.30;65.98;84565.56;5071328;28;20196;-56
2023/09/21 07:24:29;;;;;;;13.10;9.23;;;;;;;-144.30;66.08;84575.50;5071215;28;20200;-56
2023/09/21 07:26:56;;;;;;;11.23;7.75;;;;;;;-144.30;66.49;84645.06;5071394;28;20199;-62
2023/09/21 07:29:25;;;;;;;12.05;8.60;;;;;;;-144.30;67.44;84621.22;5071828;28;20610;-62
2023/09/21 07:31:52;;;;;;;11.90;7.93;;;;;;;-144.30;67.55;84426.47;5071237;28;20206;-56
2023/09/21 07:34:19;;;;;;;12.82;8.50;;;;;;;-144.30;67.76;84605.31;5070882;28;20200;-56
2023/09/21 07:36:47;;;;;;;11.00;8.18;;;;;;;-144.30;67.36;84996.88;5071189;28;20196;-57
2023/09/21 07:39:14;;;;;;;9.48;7.47;;;;;;;-144.30;67.04;84655.00;5070870;28;20195;-55
2023/09/21 07:41:41;;;;;;;10.95;7.32;;;;;;;-144.30;66.56;84615.25;5070625;28;20192;-57
2023/09/21 07:44:09;;;;;;;14.02;8.02;;;;;;;-144.30;66.62;84597.38;5071010;28;20729;-56
2023/09/21 07:46:38;;;;;;;10.65;7.55;;;;;;;-144.30;65.84;84535.75;5070461;28;20204;-56
2023/09/21 07:49:06;;;;;;;14.23;8.57;;;;;;;-144.30;65.81;84581.47;5071173;28;20318;-62
2023/09/21 07:51:34;;;;;;;15.57;8.10;;;;;;;-144.30;64.69;84583.47;5071699;28;20207;-61
2023/09/21 07:54:02;;;;;;;12.32;8.00;;;;;;;-144.30;65.25;84569.53;5071180;28;20196;-57
2023/09/21 07:56:29;;;;;;;16.65;8.65;;;;;;;-144.30;65.14;84549.69;5070786;28;20195;-55
2023/09/21 07:58:56;;;;;;;8.32;7.05;;;;;;;-144.30;64.98;84573.53;5067441;28;20202;-61
2023/09/21 08:01:26;;;;;;;9.13;7.50;;;;;;;-144.30;64.57;84529.81;5070258;28;20206;-62
2023/09/21 08:03:55;;;;;;;14.15;8.10;;;;;;;-144.30;64.74;84539.75;5068205;28;20188;-62
2023/09/21 08:06:22;;;;;;;9.98;8.32;;;;;;;-144.30;64.39;84350.94;5070798;28;20282;-62
2023/09/21 08:08:50;;;;;;;13.80;8.35;;;;;;;-144.30;64.12;84448.31;5070810;28;20222;-63
2023/09/21 08:11:17;;;;;;;9.48;7.60;;;;;;;-144.30;63.25;84498.00;5070610;28;20287;-63
2023/09/21 08:13:44;;;;;;;8.68;7.45;;;;;;;-144.30;63.58;84511.91;5050068;28;20205;-63
2023/09/21 08:16:12;;;;;;;9.35;7.95;;;;;;;-144.30;62.82;84446.31;5066180;28;20676;-62
2023/09/21 08:18:39;;;;;;;15.75;7.93;;;;;;;-144.30;62.87;84529.81;5070031;28;20240;-56
2023/09/21 08:21:09;;;;;;;8.05;7.35;;;;;;;-144.30;62.68;84496.00;5070156;28;20202;-56
2023/09/21 08:23:36;;;;;;;8.18;7.47;;;;;;;-144.30;61.94;84470.19;5069671;28;20283;-55
2023/09/21 08:26:04;;;;;;;9.85;7.32;;;;;;;-144.30;61.69;84454.28;5069360;28;20198;-57
2023/09/21 08:28:31;;;;;;;13.35;7.85;;;;;;;-144.30;61.64;84496.00;5069004;28;20227;-56
2023/09/21 08:30:58;;;;;;;11.80;8.43;;;;;;;-144.30;61.17;84466.19;5069664;28;20223;-56
2023/09/21 08:33:25;;;;;;;11.18;7.07;;;;;;;-144.30;60.98;84414.53;5069778;28;20279;-56
2023/09/21 08:35:52;;;;;;;7.95;6.85;;;;;;;-144.30;60.13;84406.59;5069852;28;20585;-56
2023/09/21 08:38:20;;;;;;;8.15;7.30;;;;;;;-144.30;59.38;84346.97;5069582;28;20287;-57
2023/09/21 08:40:52;;;;;;;10.23;7.55;;;;;;;-144.30;59.45;84348.94;5070102;28;20227;-63
2023/09/21 08:43:24;;;;;;;8.00;6.90;;;;;;;-144.30;58.88;84307.22;5069366;28;20211;-57
2023/09/21 08:45:52;;;;;;;10.10;6.60;;;;;;;-144.30;57.72;84344.97;5069457;28;20291;-56
2023/09/21 08:48:22;;;;;;;8.75;6.18;;;;;;;-144.30;57.84;84348.94;5069663;28;20731;-57
2023/09/21 08:50:50;;;;;;;7.75;5.80;;;;;;;-144.30;57.94;84354.91;5069613;28;20196;-56
2023/09/21 08:53:21;;;;;;;14.38;6.35;;;;;;;-144.30;57.74;84301.25;5069588;28;20203;-57
2023/09/21 08:55:49;;;;;;;8.35;6.40;;;;;;;-144.30;56.93;84295.28;5069590;28;20287;-57
2023/09/21 08:58:23;;;;;;;7.18;6.47;;;;;;;-144.30;56.12;84267.47;5069078;28;20188;-57
2023/09/21 09:00:53;;;;;;;6.40;5.90;;;;;;;-144.30;55.34;84225.75;5069287;28;20295;-64
2023/09/21 09:03:22;;;;;;;6.85;6.18;;;;;;;-144.30;53.90;84217.78;5069863;28;20695;-62
2023/09/21 09:05:49;;;;;;;9.30;5.85;;;;;;;-144.30;53.99;84187.97;5069450;28;20684;-63
2023/09/21 09:08:16;;;;;;;11.20;7.03;;;;;;;-144.30;54.05;84110.47;5069660;28;20230;-62
2023/09/21 09:10:44;;;;;;;9.07;6.85;;;;;;;-144.30;54.18;84164.13;5069389;28;20196;-62
2023/09/21 09:13:12;;;;;;;11.63;6.57;;;;;;;-144.30;53.41;84072.72;5067554;28;20204;-57
2023/09/21 09:15:42;;;;;;;8.65;6.32;;;;;;;-144.30;51.93;84072.72;5063828;28;20210;-58
2023/09/21 09:18:09;;;;;;;8.63;6.63;;;;;;;-144.30;51.05;84060.78;5066261;28;20750;-57
2023/09/21 09:20:37;;;;;;;10.48;6.43;;;;;;;-144.30;50.47;83820.34;5068833;28;20200;-57
2023/09/21 09:23:10;;;;;;;6.15;5.50;;;;;;;-144.30;50.03;84001.19;5069767;28;20676;-63
2023/09/21 09:25:38;;;;;;;7.32;5.03;;;;;;;-144.30;48.91;83985.28;5069319;28;20200;-62
2023/09/21 09:28:08;;;;;;;7.05;5.80;;;;;;;-144.30;48.40;84015.09;5069526;28;20223;-63
2023/09/21 09:30:36;;;;;;;5.50;5.00;;;;;;;-144.30;48.40;83957.47;5070143;28;20532;-61
2023/09/21 09:33:03;;;;;;;5.63;4.82;;;;;;;-144.30;48.55;84007.16;5070319;28;20562;-62
2023/09/21 09:35:32;;;;;;;8.35;5.18;;;;;;;-144.30;49.10;83997.22;5070157;28;20199;-63
2023/09/21 09:37:59;;;;;;;7.05;5.60;;;;;;;-144.30;48.47;83963.44;5071995;28;20200;-62
2023/09/21 09:40:28;;;;;;;8.95;5.50;;;;;;;-144.30;48.43;83905.81;5073872;28;20265;-62
2023/09/21 09:42:58;;;;;;;6.57;5.85;;;;;;;-144.30;47.72;83909.78;5073639;28;20231;-62
2023/09/21 09:45:29;;;;;;;8.70;6.65;;;;;;;-144.30;47.74;83842.22;5073269;28;20210;-58
2023/09/21 09:47:57;;;;;;;5.90;5.32;;;;;;;-144.30;47.31;83804.47;5073573;28;20192;-63
2023/09/21 09:50:25;;;;;;;5.97;5.15;;;;;;;-144.30;46.97;83816.38;5073590;28;20196;-62
2023/09/21 09:53:03;;;;;;;5.93;5.43;;;;;;;-144.30;46.31;83776.66;5073416;28;20200;-63
2023/09/21 09:55:31;;;;;;;10.52;5.25;;;;;;;-144.30;45.93;83746.84;5073654;28;20657;-63
2023/09/21 09:57:59;;;;;;;6.90;4.82;;;;;;;-144.30;46.03;83762.72;5072807;28;20192;-57
2023/09/21 10:00:28;;;;;;;8.07;5.90;;;;;;;-144.30;46.01;83818.38;5073258;28;20623;-56
2023/09/21 10:03:00;;;;;;;5.53;5.13;;;;;;;-144.30;46.41;83858.09;5072656;28;20232;-56
2023/09/21 10:05:28;;;;;;;10.18;5.68;;;;;;;-144.30;46.63;83854.13;5073057;28;20200;-57
2023/09/21 10:07:59;;;;;;;14.27;6.07;;;;;;;-144.30;47.30;83870.03;5073221;28;20196;-63
2023/09/21 10:10:30;;;;;;;6.80;6.22;;;;;;;-144.30;47.24;83826.31;5073520;28;20638;-62
2023/09/21 10:12:57;;;;;;;6.68;5.82;;;;;;;-144.30;46.94;83802.47;5072801;28;20195;-56
2023/09/21 10:15:26;;;;;;;8.55;5.50;;;;;;;-144.30;46.70;83742.88;5073137;28;20196;-57
2023/09/21 10:17:58;;;;;;;7.47;6.05;;;;;;;-144.30;46.80;83732.94;5072198;28;20239;-56
2023/09/21 10:20:27;;;;;;;8.98;6.53;;;;;;;-144.30;46.58;83707.09;5072431;28;20599;-57
2023/09/21 10:22:55;;;;;;;13.10;6.93;;;;;;;-144.30;46.24;83711.06;5072471;28;20288;-62
2023/09/21 10:25:38;;;;;;;6.85;5.93;;;;;;;-144.30;46.09;83977.34;5072984;28;20286;-62
2023/09/21 10:28:35;;;;;;;7.63;6.32;;;;;;;-144.30;45.62;83651.47;5073073;28;20585;-62
2023/09/21 10:31:20;;;;;;;7.88;6.53;;;;;;;-144.30;45.32;83591.84;5073215;28;20239;-63
2023/09/21 10:34:07;;;;;;;7.15;6.45;;;;;;;-144.30;44.91;83629.59;5072060;28;20195;-57
2023/09/21 10:36:40;;;;;;;9.90;6.30;;;;;;;-144.30;45.25;83661.41;5072469;28;20624;-56
2023/09/21 10:39:31;;;;;;;8.00;6.55;;;;;;;-144.30;45.49;83711.06;5072367;28;20227;-57
2023/09/21 10:42:33;;;;;;;6.97;6.15;;;;;;;-144.30;45.88;83705.09;5061784;28;20192;-62
2023/09/21 10:45:03;;;;;;;7.30;5.85;;;;;;;-144.30;45.37;83699.16;5069573;28;20208;-57
2023/09/21 10:47:49;;;;;;;13.00;6.82;;;;;;;-144.30;45.53;83707.09;5071990;28;20206;-57
2023/09/21 10:50:20;;;;;;;7.88;6.07;;;;;;;-144.30;44.94;83695.19;5068297;28;20223;-57
2023/09/21 10:52:50;;;;;;;6.78;5.97;;;;;;;-144.30;44.98;83687.22;5071818;28;20672;-58
2023/09/21 10:55:19;;;;;;;7.25;5.90;;;;;;;-144.30;43.98;83657.41;5071996;28;20267;-57
2023/09/21 10:57:47;;;;;;;10.93;6.15;;;;;;;-144.30;43.98;83699.16;5071634;28;20196;-63
2023/09/21 11:00:20;;;;;;;12.52;6.47;;;;;;;-144.30;45.26;83786.56;5072647;28;20192;-63
2023/09/21 11:02:49;;;;;;;6.65;6.03;;;;;;;-144.30;45.88;83828.31;5072081;28;20231;-59
2023/09/21 11:05:18;;;;;;;6.70;6.07;;;;;;;-144.30;46.17;83852.16;5072220;28;20192;-63
2023/09/21 11:07:47;;;;;;;6.88;5.70;;;;;;;-144.30;46.24;83788.56;5071949;28;20202;-64
2023/09/21 11:10:14;;;;;;;6.50;5.55;;;;;;;-144.30;45.51;83742.88;5071956;28;20220;-62
2023/09/21 11:12:42;;;;;;;6.68;6.07;;;;;;;-144.30;45.25;83752.78;5071397;28;20585;-58
2023/09/21 11:15:12;;;;;;;11.02;5.45;;;;;;;-144.30;45.47;83758.75;5071424;28;20282;-60
2023/09/21 11:17:41;;;;;;;11.68;6.80;;;;;;;-144.30;45.20;83726.97;5071287;28;20668;-58
2023/09/21 11:20:12;;;;;;;9.63;5.93;;;;;;;-144.30;45.63;83719.03;5071577;28;20192;-57
2023/09/21 11:22:42;;;;;;;12.05;6.15;;;;;;;-144.30;45.50;83756.78;5071755;28;20199;-62